This is the latest recevied weather packets stored in our database for station/object KJ4W. If no packets are shown the sender has not sent any weather packets the latest 10 day(s).
| Time | Temp. | Humidity | Pressure | Rain* | Wind** | Luminosity | Snow |
|---|---|---|---|---|---|---|---|
| 1777991331 | 15.56° C | 89% | 1010.3 hPa | 0 mm | - | - | - |
| 1777990431 | 16.11° C | 84% | 1010.2 hPa | 0 mm | - | - | - |
| 1777989531 | 17.22° C | 78% | 1010.1 hPa | 0 mm | - | - | - |
| 1777988630 | 17.78° C | 74% | 1009.5 hPa | 0 mm | - | - | - |
| 1777987731 | 17.78° C | 73% | 1009.5 hPa | 0 mm | - | - | - |
| 1777986832 | 17.78° C | 72% | 1009.4 hPa | 0 mm | - | - | - |
| 1777985930 | 17.78° C | 73% | 1009.4 hPa | 0 mm | - | - | - |
| 1777985030 | 17.22° C | 73% | 1009.2 hPa | 0 mm | - | - | - |
| 1777984129 | 16.67° C | 74% | 1009 hPa | 0 mm | - | - | - |
| 1777983231 | 16.67° C | 74% | 1008.8 hPa | 0 mm | - | - | - |
| 1777982330 | 16.67° C | 74% | 1008.8 hPa | 0 mm | - | - | - |
| 1777981431 | 16.11° C | 74% | 1008.5 hPa | 0 mm | - | - | - |
| 1777980530 | 16.11° C | 73% | 1008.6 hPa | 0 mm | - | - | - |
| 1777979630 | 16.11° C | 73% | 1008.5 hPa | 0 mm | - | - | - |
| 1777978729 | 16.11° C | 73% | 1008.2 hPa | 0 mm | - | - | - |
| 1777977831 | 16.11° C | 73% | 1008.3 hPa | 0 mm | - | - | - |
| 1777976930 | 16.11° C | 73% | 1008.6 hPa | 0 mm | - | - | - |
| 1777976030 | 16.11° C | 73% | 1008.6 hPa | 0 mm | - | - | - |
| 1777975129 | 16.11° C | 72% | 1008.7 hPa | 0 mm | - | - | - |
| 1777974229 | 16.11° C | 72% | 1008.8 hPa | 0 mm | - | - | - |
| 1777973330 | 16.67° C | 71% | 1008.7 hPa | 0 mm | - | - | - |
| 1777972432 | 16.67° C | 71% | 1008.8 hPa | 0 mm | - | - | - |
| 1777971529 | 16.67° C | 71% | 1008.7 hPa | 0 mm | - | - | - |
| 1777970629 | 16.67° C | 70% | 1008.6 hPa | 0 mm | - | - | - |
| 1777969730 | 17.22° C | 68% | 1008.4 hPa | 0 mm | - | - | - |
* Rain latest hour (hover to see other rain measurements)
** Current wind speed in m/s (hover to see current wind gust speed)